Time;durP1;ratioP1;P1;durP2;ratioP2;P2;SDS_P1;SDS_P2;PMS_P1;PMS_P2;Temp;Humidity;BMP_temperature;BMP_pressure;BME280_temperature;BME280_humidity;BME280_pressure;Samples;Min_cycle;Max_cycle;Signal;HPM_P1;HPM_P2
2022/01/28 00:01:11;;;;;;;11.73;1.80;;;5.60;99.90;;;;;;5034356;28;20116;-59
2022/01/28 00:03:39;;;;;;;10.43;1.35;;;5.60;99.90;;;;;;5053212;28;20481;-59
2022/01/28 00:06:06;;;;;;;10.60;1.38;;;5.60;99.90;;;;;;5060405;28;20029;-59
2022/01/28 00:08:31;;;;;;;12.85;1.30;;;5.50;99.90;;;;;;5059613;28;20025;-58
2022/01/28 00:10:57;;;;;;;9.13;1.88;;;5.50;99.90;;;;;;5056312;28;20035;-59
2022/01/28 00:13:27;;;;;;;8.38;1.35;;;5.50;99.90;;;;;;5056857;28;20104;-58
2022/01/28 00:39:31;;;;;;;11.43;1.58;;;5.20;99.90;;;;;;5051053;28;20506;-59
2022/01/28 00:41:56;;;;;;;16.00;1.67;;;5.20;99.90;;;;;;5050895;28;20028;-58
2022/01/28 00:44:22;;;;;;;9.98;1.17;;;5.20;99.90;;;;;;5056314;28;20036;-59
2022/01/28 00:46:48;;;;;;;11.25;1.55;;;5.20;99.90;;;;;;5051011;28;20029;-58
2022/01/28 00:49:13;;;;;;;17.00;1.48;;;5.20;99.90;;;;;;5061528;28;20385;-58
2022/01/28 00:51:39;;;;;;;11.40;1.20;;;5.20;99.90;;;;;;5053798;28;20455;-59
2022/01/28 00:54:04;;;;;;;13.25;2.65;;;5.20;99.90;;;;;;5056421;28;20048;-59
2022/01/28 00:56:30;;;;;;;9.20;1.40;;;5.20;99.90;;;;;;5056276;28;20102;-58
2022/01/28 00:58:55;;;;;;;12.70;1.67;;;5.20;99.90;;;;;;5043764;28;20362;-58
2022/01/28 01:01:21;;;;;;;21.08;3.05;;;5.20;99.90;;;;;;5056047;28;20056;-58
2022/01/28 01:03:47;;;;;;;10.48;1.48;;;5.20;99.90;;;;;;5055867;28;20115;-58
2022/01/28 01:06:12;;;;;;;8.63;1.15;;;5.10;99.90;;;;;;5053207;28;20166;-59
2022/01/28 01:08:38;;;;;;;6.22;1.25;;;5.20;99.90;;;;;;5040628;28;20366;-58
2022/01/28 01:11:05;;;;;;;12.40;1.25;;;5.10;99.90;;;;;;5056156;28;20020;-58
2022/01/28 01:13:35;;;;;;;13.80;1.40;;;5.10;99.90;;;;;;5061420;28;20025;-58
2022/01/28 01:16:01;;;;;;;11.13;1.17;;;5.10;99.90;;;;;;5052983;28;20446;-59
2022/01/28 01:18:35;;;;;;;13.27;1.70;;;5.10;99.90;;;;;;5060031;28;20427;-59
2022/01/28 01:21:06;;;;;;;12.32;1.20;;;5.10;99.90;;;;;;5059976;28;20025;-59
2022/01/28 01:23:35;;;;;;;11.68;2.08;;;5.20;99.90;;;;;;5053638;28;20468;-59
2022/01/28 01:28:31;;;;;;;13.95;1.30;;;5.10;99.90;;;;;;5052981;28;20025;-59
2022/01/28 01:30:58;;;;;;;;;;;5.10;99.90;;;;;;5036234;28;20393;-59
2022/01/28 01:33:25;;;;;;;10.82;0.93;;;5.10;99.90;;;;;;5058204;28;19931;-58
2022/01/28 01:35:50;;;;;;;8.38;1.55;;;5.00;99.90;;;;;;5049594;28;20028;-58
2022/01/28 01:38:16;;;;;;;7.75;0.80;;;5.10;99.90;;;;;;5056789;28;20024;-58
2022/01/28 01:40:47;;;;;;;8.73;1.10;;;5.10;99.90;;;;;;5052498;28;20027;-58
2022/01/28 01:52:02;;;;;;;11.45;1.48;;;5.10;99.90;;;;;;5052636;28;20128;-58
2022/01/28 01:54:01;;;;;;;12.15;1.85;;;5.10;99.90;;;;;;5049537;28;20067;-58
2022/01/28 01:56:28;;;;;;;12.95;1.55;;;5.10;99.90;;;;;;5052105;28;20511;-58
2022/01/28 01:58:54;;;;;;;14.48;1.35;;;5.10;99.90;;;;;;5052057;28;20024;-58
2022/01/28 02:01:20;;;;;;;15.10;1.42;;;5.10;99.90;;;;;;5049509;28;20032;-59
2022/01/28 02:03:46;;;;;;;14.07;1.40;;;5.10;99.90;;;;;;5041762;28;20032;-59
2022/01/28 02:06:11;;;;;;;13.38;1.33;;;5.10;99.90;;;;;;5049099;28;20032;-58
2022/01/28 02:08:37;;;;;;;9.18;1.15;;;5.10;99.90;;;;;;5052181;28;20128;-58
2022/01/28 02:11:03;;;;;;;7.72;1.08;;;5.10;99.90;;;;;;5043101;28;20495;-58
2022/01/28 02:13:33;;;;;;;8.10;1.27;;;5.20;99.90;;;;;;5033866;28;20025;-58
2022/01/28 02:16:00;;;;;;;4.68;0.70;;;5.10;99.90;;;;;;5051846;28;20499;-58
2022/01/28 02:18:26;;;;;;;9.77;0.90;;;5.10;99.90;;;;;;5063281;28;20021;-58
2022/01/28 02:20:54;;;;;;;10.57;2.00;;;5.10;99.90;;;;;;5048735;28;20035;-58
2022/01/28 02:23:22;;;;;;;14.60;2.78;;;5.10;99.90;;;;;;5058857;28;20039;-58
2022/01/28 02:25:48;;;;;;;7.25;1.50;;;5.10;99.90;;;;;;5051574;28;20111;-58
2022/01/28 02:28:17;;;;;;;12.25;1.48;;;5.10;99.90;;;;;;5033706;28;20021;-58
2022/01/28 02:30:43;;;;;;;9.68;1.52;;;5.10;99.90;;;;;;5039270;28;20024;-58
2022/01/28 02:33:13;;;;;;;8.27;1.23;;;5.10;99.90;;;;;;5056827;28;20052;-58
2022/01/28 02:35:40;;;;;;;11.20;1.40;;;5.10;99.90;;;;;;5046328;28;20032;-58
2022/01/28 02:38:07;;;;;;;5.85;0.80;;;5.10;99.90;;;;;;5059970;28;20025;-58
2022/01/28 02:40:33;;;;;;;8.98;1.02;;;5.10;99.90;;;;;;5051419;28;20063;-58
2022/01/28 02:43:04;;;;;;;8.32;0.85;;;5.10;99.90;;;;;;5061952;28;20492;-58
2022/01/28 02:45:38;;;;;;;6.05;1.08;;;5.10;99.90;;;;;;5048028;28;20035;-58
2022/01/28 02:48:08;;;;;;;9.00;1.23;;;5.10;99.90;;;;;;5052921;28;20075;-58
2022/01/28 02:50:44;;;;;;;7.05;0.98;;;5.10;99.90;;;;;;5054896;28;20021;-58
2022/01/28 02:53:21;;;;;;;9.45;1.00;;;5.10;99.90;;;;;;5054291;28;20025;-58
2022/01/28 02:55:46;;;;;;;9.13;0.80;;;5.10;99.90;;;;;;5051413;28;20052;-58
2022/01/28 02:58:17;;;;;;;7.93;1.08;;;5.10;99.90;;;;;;5051868;28;20566;-58
2022/01/28 03:00:43;;;;;;;10.27;1.90;;;5.00;99.90;;;;;;5057552;28;20527;-58
2022/01/28 03:03:09;;;;;;;8.07;1.02;;;5.10;99.90;;;;;;5039190;28;20029;-58
2022/01/28 03:05:35;;;;;;;7.93;0.80;;;5.10;99.90;;;;;;5052092;28;20040;-58
2022/01/28 03:08:03;;;;;;;11.02;1.13;;;5.00;99.90;;;;;;5044419;28;20404;-58
2022/01/28 03:10:41;;;;;;;7.30;0.95;;;5.10;99.90;;;;;;5041607;28;20021;-58
2022/01/28 03:15:38;;;;;;;11.02;1.00;;;5.10;99.90;;;;;;5050001;28;20021;-58
2022/01/28 03:18:11;;;;;;;6.63;0.77;;;5.00;99.90;;;;;;5055847;28;20021;-58
2022/01/28 03:20:44;;;;;;;6.20;1.38;;;5.00;99.90;;;;;;5054111;28;20044;-58
2022/01/28 03:23:11;;;;;;;12.82;2.35;;;5.00;99.90;;;;;;5044641;28;20074;-58
2022/01/28 03:25:41;;;;;;;7.43;1.25;;;5.00;99.90;;;;;;5051619;28;20028;-59
2022/01/28 03:28:07;;;;;;;7.38;1.20;;;5.00;99.90;;;;;;5033720;28;20366;-58
2022/01/28 03:30:33;;;;;;;12.20;1.20;;;5.00;99.90;;;;;;5030198;28;20036;-58
2022/01/28 03:32:58;;;;;;;8.23;1.02;;;5.00;99.90;;;;;;5033005;28;20043;-58
2022/01/28 03:35:24;;;;;;;4.15;1.00;;;5.00;99.90;;;;;;5054371;28;20448;-59
2022/01/28 03:37:58;;;;;;;9.68;1.40;;;5.00;99.90;;;;;;5057513;28;20024;-58
2022/01/28 03:40:24;;;;;;;7.28;1.08;;;5.00;99.90;;;;;;5037965;28;20019;-58
2022/01/28 03:42:57;;;;;;;8.45;0.90;;;5.00;99.90;;;;;;5039755;28;20036;-58
2022/01/28 03:45:22;;;;;;;5.72;1.20;;;5.00;99.90;;;;;;5042365;28;20036;-58
2022/01/28 03:47:48;;;;;;;10.73;1.10;;;5.00;99.90;;;;;;5054547;28;20025;-58
2022/01/28 03:50:13;;;;;;;6.78;1.17;;;4.90;99.90;;;;;;5042047;28;20389;-59
2022/01/28 03:52:39;;;;;;;6.53;1.67;;;4.90;99.90;;;;;;5059075;28;20112;-58
2022/01/28 03:55:05;;;;;;;7.75;1.13;;;4.90;99.90;;;;;;5040436;28;20090;-59
2022/01/28 03:57:31;;;;;;;9.05;0.90;;;4.90;99.90;;;;;;5056955;28;20040;-58
2022/01/28 03:59:56;;;;;;;10.07;1.58;;;4.90;99.90;;;;;;5058462;28;20028;-59
2022/01/28 04:02:26;;;;;;;7.82;1.08;;;4.90;99.90;;;;;;5042154;28;20029;-58
2022/01/28 04:12:46;;;;;;;12.15;4.22;;;4.90;99.90;;;;;;5061004;28;20587;-58
2022/01/28 04:17:48;;;;;;;11.20;1.20;;;4.80;99.90;;;;;;5062617;28;20104;-58
2022/01/28 04:20:13;;;;;;;12.55;1.42;;;4.80;99.90;;;;;;5062509;28;20025;-58
2022/01/28 04:22:39;;;;;;;10.88;1.17;;;4.80;99.90;;;;;;5056746;28;20044;-58
2022/01/28 04:25:05;;;;;;;7.03;1.13;;;4.80;99.90;;;;;;5035541;28;20107;-58
2022/01/28 04:27:30;;;;;;;7.43;1.20;;;4.80;99.90;;;;;;5041810;28;20152;-58
2022/01/28 04:29:56;;;;;;;9.95;1.35;;;4.80;99.90;;;;;;5043508;28;20013;-58
2022/01/28 04:32:24;;;;;;;7.35;1.42;;;4.80;99.90;;;;;;5044265;28;20044;-58
2022/01/28 04:34:49;;;;;;;7.90;0.60;;;4.80;99.90;;;;;;5056790;28;20017;-58
2022/01/28 04:47:34;;;;;;;8.82;1.10;;;4.70;99.90;;;;;;5055517;28;20627;-58
2022/01/28 04:53:08;;;;;;;5.18;1.08;;;4.70;99.90;;;;;;5056567;28;20469;-58
2022/01/28 05:01:03;;;;;;;12.55;1.60;;;4.70;99.90;;;;;;5050789;28;20082;-58
2022/01/28 05:27:09;;;;;;;8.30;1.70;;;4.50;99.90;;;;;;5055750;28;20040;-59
2022/01/28 05:29:43;;;;;;;8.57;0.90;;;4.50;99.90;;;;;;5052965;28;20029;-58
2022/01/28 05:32:10;;;;;;;7.22;1.15;;;4.50;99.90;;;;;;5052400;28;20069;-58
2022/01/28 05:34:36;;;;;;;13.50;1.20;;;4.50;99.90;;;;;;5057709;28;20029;-59
2022/01/28 05:37:03;;;;;;;11.85;0.85;;;4.40;99.90;;;;;;5042096;28;20036;-58
2022/01/28 05:39:28;;;;;;;8.40;0.82;;;4.40;99.90;;;;;;5049812;28;20151;-59
2022/01/28 05:41:54;;;;;;;6.03;0.85;;;4.40;99.90;;;;;;5055237;28;20429;-59
2022/01/28 05:44:20;;;;;;;10.13;1.45;;;4.40;99.90;;;;;;5051285;28;20052;-58
2022/01/28 05:46:46;;;;;;;12.55;2.33;;;4.40;99.90;;;;;;5053894;28;20036;-58
2022/01/28 05:49:13;;;;;;;8.32;1.10;;;4.40;99.90;;;;;;5034669;28;20016;-58
2022/01/28 05:51:39;;;;;;;9.02;1.08;;;4.40;99.90;;;;;;5045418;28;20025;-59
2022/01/28 05:54:04;;;;;;;7.25;0.90;;;4.40;99.90;;;;;;5039939;28;20021;-59
2022/01/28 05:56:31;;;;;;;6.20;0.93;;;4.40;99.90;;;;;;5042305;28;20029;-58
2022/01/28 05:58:58;;;;;;;9.07;1.20;;;4.40;99.90;;;;;;5054338;28;20434;-58
2022/01/28 06:01:23;;;;;;;5.68;0.63;;;4.40;99.90;;;;;;5054752;28;20078;-59
2022/01/28 06:03:49;;;;;;;7.15;0.65;;;4.40;99.90;;;;;;5057669;28;20020;-58
2022/01/28 06:06:23;;;;;;;8.50;1.10;;;4.40;99.90;;;;;;5033761;28;20021;-59
2022/01/28 06:08:59;;;;;;;11.15;1.17;;;4.40;99.90;;;;;;5054990;28;20027;-59
2022/01/28 06:11:25;;;;;;;7.97;0.70;;;4.40;99.90;;;;;;5046434;28;20539;-58
2022/01/28 06:13:51;;;;;;;6.10;0.73;;;4.40;99.90;;;;;;5049696;28;20400;-58
2022/01/28 06:16:17;;;;;;;6.30;0.75;;;4.30;99.90;;;;;;5054698;28;20433;-58
2022/01/28 06:18:43;;;;;;;5.70;0.45;;;4.40;99.90;;;;;;5043480;28;20030;-58
2022/01/28 06:21:09;;;;;;;6.25;0.52;;;4.40;99.90;;;;;;5042047;28;20033;-58
2022/01/28 06:23:35;;;;;;;7.68;1.13;;;4.40;99.90;;;;;;5051705;28;20036;-58
2022/01/28 06:26:02;;;;;;;4.07;0.50;;;4.40;99.90;;;;;;5044963;28;20025;-59
2022/01/28 06:28:28;;;;;;;7.00;0.90;;;4.30;99.90;;;;;;5042032;28;20477;-58
2022/01/28 06:30:54;;;;;;;6.78;1.00;;;4.30;99.90;;;;;;5033921;28;20040;-58
2022/01/28 06:33:20;;;;;;;7.50;1.55;;;4.40;99.90;;;;;;5052246;28;20028;-58
2022/01/28 06:35:46;;;;;;;6.55;0.80;;;4.40;99.90;;;;;;5052638;28;20129;-58
2022/01/28 06:38:12;;;;;;;5.22;0.85;;;4.40;99.90;;;;;;5051762;28;20112;-58
2022/01/28 06:40:38;;;;;;;5.18;0.60;;;4.30;99.90;;;;;;5034884;28;20025;-58
2022/01/28 06:43:08;;;;;;;5.90;0.60;;;4.30;99.90;;;;;;5052770;28;20051;-58
2022/01/28 06:45:34;;;;;;;6.68;0.70;;;4.30;99.90;;;;;;5052655;28;20048;-58
2022/01/28 06:48:03;;;;;;;7.70;0.70;;;4.30;99.90;;;;;;5052553;28;20492;-59
2022/01/28 06:50:28;;;;;;;11.02;0.80;;;4.30;99.90;;;;;;5060119;28;20522;-58
2022/01/28 06:52:54;;;;;;;7.10;0.57;;;4.30;99.90;;;;;;5072698;28;20024;-58
2022/01/28 06:55:19;;;;;;;7.53;0.90;;;4.30;99.90;;;;;;5072727;28;20125;-58
2022/01/28 06:57:45;;;;;;;7.35;0.70;;;4.30;99.90;;;;;;5053834;28;20024;-58
2022/01/28 07:00:11;;;;;;;8.40;1.27;;;4.20;99.90;;;;;;5072185;28;20071;-58
2022/01/28 07:02:37;;;;;;;4.32;0.70;;;4.30;99.90;;;;;;5065522;28;20033;-58
2022/01/28 07:05:04;;;;;;;9.75;0.77;;;4.30;99.90;;;;;;5052026;28;20053;-58
2022/01/28 07:07:30;;;;;;;7.43;0.80;;;4.30;99.90;;;;;;5052654;28;20028;-58
2022/01/28 07:09:56;;;;;;;6.82;0.80;;;4.20;99.90;;;;;;5052532;28;20047;-58
2022/01/28 07:12:22;;;;;;;8.85;0.93;;;4.20;99.90;;;;;;5063044;28;20017;-58
2022/01/28 07:14:49;;;;;;;5.38;0.70;;;4.20;99.90;;;;;;5076614;28;20025;-58
2022/01/28 07:17:15;;;;;;;5.40;0.90;;;4.20;99.90;;;;;;5075752;28;20032;-58
2022/01/28 07:19:41;;;;;;;7.40;0.80;;;4.20;99.90;;;;;;5075294;28;20029;-59
2022/01/28 07:22:07;;;;;;;5.88;0.68;;;4.20;99.90;;;;;;5055055;28;20480;-58
2022/01/28 07:24:33;;;;;;;5.13;0.60;;;4.10;99.90;;;;;;5072028;28;20059;-58
2022/01/28 07:26:59;;;;;;;2.28;0.55;;;4.20;99.90;;;;;;5057457;28;20508;-58
2022/01/28 07:29:28;;;;;;;3.70;1.15;;;4.10;99.90;;;;;;5076168;28;20070;-59
2022/01/28 07:31:55;;;;;;;6.00;0.60;;;4.10;99.90;;;;;;5058314;28;20097;-58
2022/01/28 07:34:20;;;;;;;4.55;0.80;;;4.10;99.90;;;;;;5057978;28;20028;-58
2022/01/28 07:36:49;;;;;;;6.45;0.88;;;4.10;99.90;;;;;;5058329;28;20178;-58
2022/01/28 07:39:14;;;;;;;8.35;1.05;;;4.10;99.90;;;;;;5058192;28;20024;-59
2022/01/28 07:41:40;;;;;;;5.78;1.30;;;4.10;99.90;;;;;;5076486;28;20043;-58
2022/01/28 07:44:06;;;;;;;7.43;1.83;;;4.10;99.90;;;;;;5076144;28;20422;-59
2022/01/28 07:46:33;;;;;;;9.07;2.90;;;4.20;99.90;;;;;;5056649;28;20027;-59
2022/01/28 07:48:59;;;;;;;6.47;1.70;;;4.20;99.90;;;;;;5056317;28;20021;-58
2022/01/28 07:51:24;;;;;;;4.97;1.33;;;4.20;99.90;;;;;;5071424;28;20124;-58
2022/01/28 07:53:50;;;;;;;7.93;1.42;;;4.20;99.90;;;;;;5074186;28;20060;-58
2022/01/28 07:56:16;;;;;;;6.57;1.35;;;4.20;99.90;;;;;;5075414;28;20029;-59
2022/01/28 07:58:41;;;;;;;4.88;0.70;;;4.30;99.90;;;;;;5075721;28;20099;-58
2022/01/28 08:01:07;;;;;;;8.35;1.30;;;4.30;99.90;;;;;;5071822;28;20025;-59
2022/01/28 08:03:33;;;;;;;5.25;0.85;;;4.30;99.90;;;;;;5056585;28;20534;-59
2022/01/28 08:05:58;;;;;;;5.05;0.80;;;4.40;99.90;;;;;;5056379;28;20058;-58
2022/01/28 08:08:24;;;;;;;4.70;0.50;;;4.40;99.90;;;;;;5075418;28;20063;-58
2022/01/28 08:10:49;;;;;;;3.13;0.52;;;4.40;99.90;;;;;;5075457;28;20070;-58
2022/01/28 08:13:15;;;;;;;5.85;0.60;;;4.50;99.90;;;;;;5075664;28;20066;-59
2022/01/28 08:15:41;;;;;;;6.35;0.60;;;4.50;99.90;;;;;;5075520;28;20107;-58
2022/01/28 08:18:08;;;;;;;5.10;0.63;;;4.50;99.90;;;;;;5075488;28;20108;-59
2022/01/28 08:20:34;;;;;;;3.78;0.65;;;4.50;99.90;;;;;;5075185;28;20020;-59
2022/01/28 08:23:00;;;;;;;4.80;0.47;;;4.50;99.90;;;;;;5055458;28;20046;-59
2022/01/28 08:25:27;;;;;;;3.10;0.40;;;4.50;99.90;;;;;;5072970;28;20043;-58
2022/01/28 08:27:54;;;;;;;4.80;0.60;;;4.60;99.90;;;;;;5056174;28;20103;-59
2022/01/28 08:30:22;;;;;;;2.38;0.40;;;4.60;99.90;;;;;;5055307;28;20458;-59
2022/01/28 08:32:49;;;;;;;3.70;0.60;;;4.60;99.90;;;;;;5056472;28;20053;-59
2022/01/28 08:35:16;;;;;;;6.93;0.60;;;4.60;99.90;;;;;;5071502;28;20107;-58
2022/01/28 08:37:41;;;;;;;2.28;0.40;;;4.70;99.90;;;;;;5070373;28;20028;-59
2022/01/28 08:40:13;;;;;;;7.63;0.70;;;4.70;99.90;;;;;;5055301;28;20023;-59
2022/01/28 08:42:39;;;;;;;8.07;0.68;;;4.90;99.90;;;;;;5063994;28;20017;-58
2022/01/28 08:45:05;;;;;;;6.88;1.27;;;4.90;99.90;;;;;;5055248;28;20173;-58
2022/01/28 08:47:31;;;;;;;3.47;0.80;;;5.00;99.90;;;;;;5055233;28;20028;-58
2022/01/28 08:49:56;;;;;;;9.30;1.50;;;5.10;99.90;;;;;;5072668;28;20017;-58
2022/01/28 08:52:22;;;;;;;5.18;0.95;;;5.20;99.90;;;;;;5073180;28;20017;-59
2022/01/28 08:54:48;;;;;;;5.00;0.75;;;5.20;99.90;;;;;;5071752;28;20017;-59
2022/01/28 08:57:14;;;;;;;6.43;0.70;;;5.30;99.90;;;;;;5074793;28;20059;-59
2022/01/28 08:59:42;;;;;;;4.45;0.77;;;5.30;99.90;;;;;;5074359;28;20017;-58
2022/01/28 09:02:08;;;;;;;4.60;0.63;;;5.40;99.90;;;;;;5056715;28;20365;-59
2022/01/28 09:04:34;;;;;;;5.65;1.17;;;5.40;99.90;;;;;;5074445;28;20516;-59
2022/01/28 09:07:00;;;;;;;8.10;1.02;;;5.50;99.90;;;;;;5056496;28;20120;-58
2022/01/28 09:09:25;;;;;;;9.65;1.08;;;5.50;99.90;;;;;;5074637;28;20473;-58
2022/01/28 09:12:26;;;;;;;6.55;0.90;;;5.50;99.90;;;;;;5074359;28;20353;-58
2022/01/28 09:14:39;;;;;;;8.25;1.00;;;5.60;99.90;;;;;;5072061;28;20047;-59
2022/01/28 09:17:05;;;;;;;6.55;1.00;;;5.60;99.90;;;;;;5061846;28;20017;-59
2022/01/28 09:19:31;;;;;;;6.13;0.98;;;5.70;99.90;;;;;;5054156;28;20043;-59
2022/01/28 09:21:56;;;;;;;6.20;1.17;;;5.70;99.90;;;;;;5054046;28;20473;-59
2022/01/28 09:24:22;;;;;;;3.80;0.70;;;5.80;99.90;;;;;;5035962;28;20025;-59
2022/01/28 09:26:47;;;;;;;7.07;1.38;;;5.80;99.90;;;;;;5054049;28;20025;-59
2022/01/28 09:29:13;;;;;;;8.82;1.23;;;5.90;99.90;;;;;;5053950;28;20068;-59
2022/01/28 09:31:39;;;;;;;12.10;1.30;;;6.00;99.90;;;;;;5053590;28;20083;-59
2022/01/28 09:34:04;;;;;;;8.70;1.05;;;6.00;99.90;;;;;;5052549;28;20033;-59
2022/01/28 09:36:30;;;;;;;7.82;1.10;;;6.10;99.90;;;;;;5056684;28;20052;-58
2022/01/28 09:38:55;;;;;;;8.32;1.17;;;6.10;99.90;;;;;;5073785;28;20084;-59
2022/01/28 09:41:22;;;;;;;6.28;0.80;;;6.30;99.90;;;;;;5055507;28;20106;-59
2022/01/28 09:43:48;;;;;;;6.13;0.98;;;6.30;99.90;;;;;;5073681;28;20034;-59
2022/01/28 09:46:14;;;;;;;5.20;0.95;;;6.40;99.90;;;;;;5073709;28;20025;-59
2022/01/28 09:48:40;;;;;;;8.07;1.02;;;6.50;99.90;;;;;;5055765;28;20071;-59
2022/01/28 09:51:06;;;;;;;4.60;1.08;;;6.60;99.90;;;;;;5055322;28;20020;-59
2022/01/28 09:53:32;;;;;;;7.20;1.83;;;6.70;99.90;;;;;;5055456;28;20436;-58
2022/01/28 09:55:58;;;;;;;7.47;1.20;;;6.80;99.90;;;;;;5055488;28;20029;-58
2022/01/28 09:58:24;;;;;;;7.30;1.52;;;6.90;99.90;;;;;;5055637;28;20024;-58
2022/01/28 10:00:50;;;;;;;6.22;0.93;;;7.00;99.90;;;;;;5073355;28;20062;-58
2022/01/28 10:03:18;;;;;;;5.47;1.10;;;7.10;99.90;;;;;;5055531;28;20652;-59
2022/01/28 10:05:50;;;;;;;5.80;0.90;;;7.30;99.90;;;;;;5073193;28;20123;-58
2022/01/28 10:08:20;;;;;;;8.98;1.20;;;7.40;99.90;;;;;;5055330;28;20021;-59
2022/01/28 10:11:10;;;;;;;5.70;0.90;;;7.50;99.90;;;;;;5055009;28;20024;-59
2022/01/28 10:13:42;;;;;;;;;;;7.70;99.90;;;;;;5073700;28;20025;-59
2022/01/28 10:16:09;;;;;;;4.30;1.02;;;7.90;99.90;;;;;;5055081;28;19904;-59
2022/01/28 10:18:41;;;;;;;6.20;0.65;;;8.50;99.90;;;;;;5073006;28;20025;-59
2022/01/28 10:21:14;;;;;;;6.72;1.10;;;9.40;99.90;;;;;;5072946;28;20058;-59
2022/01/28 10:23:42;;;;;;;7.13;1.17;;;10.20;99.90;;;;;;5072785;28;20031;-59
2022/01/28 10:26:07;;;;;;;6.53;0.90;;;10.70;99.90;;;;;;5072930;28;20029;-59
2022/01/28 10:28:33;;;;;;;5.55;1.20;;;11.40;99.40;;;;;;5073030;28;20108;-59
2022/01/28 10:31:03;;;;;;;5.03;1.05;;;12.00;98.40;;;;;;5054659;28;20424;-59
2022/01/28 10:33:29;;;;;;;10.77;1.30;;;12.10;97.20;;;;;;5054963;28;20035;-59
2022/01/28 10:35:57;;;;;;;7.72;1.38;;;12.10;96.50;;;;;;5072762;28;20025;-59
2022/01/28 10:38:37;;;;;;;9.70;1.52;;;12.10;96.10;;;;;;5072751;28;20498;-59
2022/01/28 10:41:14;;;;;;;5.55;1.27;;;12.00;95.60;;;;;;5066140;28;20029;-59
2022/01/28 10:43:44;;;;;;;8.13;1.33;;;12.00;95.40;;;;;;5064907;28;20025;-59
2022/01/28 10:46:10;;;;;;;5.50;1.10;;;11.80;95.10;;;;;;5070305;28;20024;-59
2022/01/28 10:48:56;;;;;;;8.85;1.38;;;12.00;95.20;;;;;;5071102;28;20023;-59
2022/01/28 10:51:36;;;;;;;7.75;1.08;;;12.80;94.90;;;;;;5065966;28;20548;-59
2022/01/28 10:54:06;;;;;;;6.60;1.20;;;13.20;93.80;;;;;;5067791;28;20060;-60
2022/01/28 10:56:45;;;;;;;7.45;1.42;;;13.50;93.50;;;;;;5071021;28;20028;-59
2022/01/28 10:59:13;;;;;;;6.90;1.40;;;14.40;92.90;;;;;;5072191;28;20050;-59
2022/01/28 11:01:40;;;;;;;3.65;1.23;;;15.20;91.80;;;;;;5054190;28;20432;-60
2022/01/28 11:04:09;;;;;;;6.18;1.33;;;15.80;91.10;;;;;;5054558;28;20527;-60
2022/01/28 11:06:35;;;;;;;7.57;1.67;;;16.50;88.90;;;;;;5054562;28;20127;-59
2022/01/28 11:09:01;;;;;;;5.43;1.23;;;17.40;85.40;;;;;;5072269;28;20396;-60
2022/01/28 11:11:27;;;;;;;5.22;1.42;;;18.30;79.20;;;;;;5072477;28;20473;-60
2022/01/28 11:13:52;;;;;;;9.00;1.38;;;18.80;75.00;;;;;;5053405;28;20032;-60
2022/01/28 11:16:18;;;;;;;5.85;1.50;;;19.40;71.20;;;;;;5071892;28;20024;-59
2022/01/28 11:18:50;;;;;;;5.72;1.10;;;20.00;69.50;;;;;;5072513;28;20020;-60
2022/01/28 11:21:17;;;;;;;5.97;1.17;;;20.30;68.10;;;;;;5072220;28;20396;-60
2022/01/28 11:23:55;;;;;;;7.93;1.50;;;19.70;67.50;;;;;;5072065;28;20024;-60
2022/01/28 11:26:43;;;;;;;4.38;1.08;;;19.40;68.20;;;;;;5072294;28;20028;-60
2022/01/28 11:29:24;;;;;;;7.43;1.20;;;19.70;68.00;;;;;;5072360;28;20412;-60
2022/01/28 11:31:52;;;;;;;7.40;1.13;;;19.80;66.70;;;;;;5049757;28;20044;-60
2022/01/28 11:34:31;;;;;;;9.05;1.40;;;20.00;65.30;;;;;;5054677;28;20473;-60
2022/01/28 11:37:18;;;;;;;5.78;1.33;;;20.80;64.50;;;;;;5034454;28;20029;-60
2022/01/28 11:39:47;;;;;;;3.53;1.00;;;20.80;62.70;;;;;;5041165;28;20037;-60
2022/01/28 11:42:17;;;;;;;5.88;1.60;;;20.70;62.50;;;;;;5034197;28;20040;-60
2022/01/28 11:44:44;;;;;;;6.60;1.08;;;20.40;61.30;;;;;;5065853;28;20024;-59
2022/01/28 11:47:19;;;;;;;5.65;1.05;;;20.00;61.00;;;;;;5072355;28;20151;-59
2022/01/28 11:50:05;;;;;;;8.85;1.70;;;19.20;62.10;;;;;;5070764;28;20035;-60
2022/01/28 11:52:34;;;;;;;6.63;1.30;;;18.90;63.50;;;;;;5072110;28;20197;-60
2022/01/28 11:55:15;;;;;;;4.22;1.30;;;18.70;63.00;;;;;;5071137;28;20028;-59
2022/01/28 11:57:53;;;;;;;8.02;1.40;;;18.80;63.00;;;;;;5072942;28;20013;-60
2022/01/28 12:00:22;;;;;;;6.30;1.65;;;20.30;62.00;;;;;;5054699;28;20016;-60
2022/01/28 12:02:49;;;;;;;6.30;1.27;;;22.30;59.00;;;;;;5072095;28;20008;-60
2022/01/28 12:05:45;;;;;;;4.18;1.10;;;23.10;56.80;;;;;;5050061;28;20017;-60
2022/01/28 12:08:12;;;;;;;5.03;1.10;;;23.00;55.00;;;;;;5069429;28;20024;-60
2022/01/28 12:10:44;;;;;;;3.63;1.05;;;24.30;54.00;;;;;;5075346;28;20049;-60
2022/01/28 12:13:13;;;;;;;4.53;0.75;;;25.70;51.60;;;;;;5075987;28;20115;-60
2022/01/28 12:15:59;;;;;;;4.17;1.10;;;26.40;49.80;;;;;;5057255;28;20396;-61
2022/01/28 12:18:26;;;;;;;5.50;1.23;;;27.50;47.90;;;;;;5057597;28;20028;-61
2022/01/28 12:20:57;;;;;;;2.47;0.70;;;28.50;46.00;;;;;;5057528;28;20451;-61
2022/01/28 12:23:25;;;;;;;4.10;1.13;;;29.50;44.60;;;;;;5057089;28;20407;-61
2022/01/28 12:25:55;;;;;;;6.53;1.30;;;29.70;43.00;;;;;;5056053;28;20491;-61
2022/01/28 12:28:21;;;;;;;5.10;1.65;;;30.40;41.30;;;;;;5075286;28;20032;-58
2022/01/28 12:31:00;;;;;;;4.93;1.08;;;29.90;40.80;;;;;;5057160;28;20384;-58
2022/01/28 12:33:27;;;;;;;;;;;30.20;41.10;;;;;;5075377;28;20024;-58
2022/01/28 12:36:06;;;;;;;4.05;1.10;;;30.70;40.10;;;;;;5071307;28;19912;-58
2022/01/28 12:38:33;;;;;;;3.58;0.93;;;30.30;40.20;;;;;;5072130;28;20541;-58
2022/01/28 12:41:07;;;;;;;2.50;0.70;;;30.90;39.40;;;;;;5074916;28;20070;-58
2022/01/28 12:43:36;;;;;;;4.60;0.98;;;31.10;38.80;;;;;;5074639;28;20017;-58
2022/01/28 12:46:11;;;;;;;5.32;1.00;;;30.50;38.80;;;;;;5056867;28;20082;-58
2022/01/28 12:48:52;;;;;;;5.72;1.35;;;30.10;38.70;;;;;;5074658;28;20038;-58
2022/01/28 12:51:21;;;;;;;4.03;1.02;;;29.20;39.10;;;;;;5073635;28;20139;-58
2022/01/28 12:53:53;;;;;;;3.38;0.88;;;29.40;39.20;;;;;;5072999;28;20500;-59
2022/01/28 12:56:48;;;;;;;5.07;1.10;;;30.20;37.90;;;;;;5070765;28;20124;-58
2022/01/28 12:59:13;;;;;;;4.80;0.90;;;30.70;36.70;;;;;;5068712;28;20043;-59
2022/01/28 13:01:54;;;;;;;5.22;1.20;;;31.40;36.40;;;;;;5070763;28;20028;-59
2022/01/28 13:04:23;;;;;;;3.00;0.85;;;31.60;36.20;;;;;;5054986;28;20016;-58
2022/01/28 13:09:19;;;;;;;6.10;1.10;;;31.40;36.30;;;;;;5074590;28;19904;-59
2022/01/28 13:11:47;;;;;;;7.95;1.20;;;30.10;36.50;;;;;;5056131;28;20111;-58
2022/01/28 13:14:14;;;;;;;6.40;1.40;;;28.80;38.10;;;;;;5056543;28;20120;-59
2022/01/28 13:16:42;;;;;;;4.05;1.00;;;27.70;38.30;;;;;;5074258;28;20056;-58
2022/01/28 13:19:11;;;;;;;6.38;1.25;;;27.20;39.30;;;;;;5056532;28;20033;-59
2022/01/28 13:21:37;;;;;;;4.90;1.13;;;27.70;39.20;;;;;;5056465;28;20028;-58
2022/01/28 13:24:20;;;;;;;4.80;1.25;;;28.20;38.70;;;;;;5056105;28;20024;-59
2022/01/28 13:26:59;;;;;;;5.15;1.30;;;29.00;37.90;;;;;;5074038;28;20111;-58
2022/01/28 13:29:34;;;;;;;4.55;1.38;;;29.80;37.30;;;;;;5056173;28;20063;-58
2022/01/28 13:32:04;;;;;;;3.30;1.02;;;30.00;37.00;;;;;;5073787;28;20101;-59
2022/01/28 13:34:49;;;;;;;5.75;1.40;;;30.10;36.40;;;;;;5055989;28;20511;-59
2022/01/28 13:37:38;;;;;;;4.90;1.35;;;30.00;36.00;;;;;;5055901;28;20443;-58
2022/01/28 13:40:29;;;;;;;6.03;1.50;;;29.90;36.50;;;;;;5073651;28;20013;-58
2022/01/28 13:43:15;;;;;;;7.40;1.50;;;29.40;36.50;;;;;;5072953;28;20112;-59
2022/01/28 13:45:43;;;;;;;9.68;1.38;;;29.00;36.30;;;;;;5055858;28;20025;-59
2022/01/28 13:48:20;;;;;;;5.30;1.40;;;28.70;36.40;;;;;;5073833;28;20027;-58
2022/01/28 13:50:49;;;;;;;6.63;1.50;;;28.30;37.20;;;;;;5071944;28;20033;-61
2022/01/28 13:56:08;;;;;;;5.50;1.48;;;28.40;37.10;;;;;;5069853;28;20028;-61
2022/01/28 13:58:50;;;;;;;5.40;1.70;;;27.50;37.30;;;;;;5071869;28;20021;-61
2022/01/28 14:01:15;;;;;;;5.20;1.30;;;26.40;37.80;;;;;;5068994;28;20470;-61
2022/01/28 14:03:54;;;;;;;6.15;1.35;;;25.30;39.00;;;;;;5067535;28;20060;-62
2022/01/28 14:06:21;;;;;;;;;;;25.60;39.50;;;;;;5071600;28;20033;-61
2022/01/28 14:08:54;;;;;;;4.40;0.98;;;26.00;39.30;;;;;;5070709;28;19991;-62
2022/01/28 14:11:38;;;;;;;8.15;1.83;;;25.90;38.70;;;;;;5053287;28;20113;-61
2022/01/28 14:14:14;;;;;;;7.50;1.60;;;25.20;38.80;;;;;;5053111;28;20021;-61
2022/01/28 14:16:41;;;;;;;9.15;1.75;;;24.40;40.00;;;;;;5057635;28;20476;-61
2022/01/28 14:19:07;;;;;;;5.15;1.50;;;24.10;40.70;;;;;;5042363;28;20082;-61
2022/01/28 14:21:32;;;;;;;5.95;1.42;;;24.00;40.90;;;;;;5055146;28;20056;-61
2022/01/28 14:23:58;;;;;;;5.25;1.58;;;23.60;41.30;;;;;;5072891;28;20021;-61
2022/01/28 14:26:23;;;;;;;6.93;1.75;;;23.30;41.80;;;;;;5072534;28;20032;-60
2022/01/28 14:31:26;;;;;;;6.45;1.88;;;23.00;42.50;;;;;;5068649;28;20515;-61
2022/01/28 14:33:54;;;;;;;5.68;1.75;;;22.90;42.80;;;;;;5045346;28;20055;-61
2022/01/28 14:36:20;;;;;;;6.18;1.92;;;22.30;43.40;;;;;;5071810;28;20067;-61
2022/01/28 14:38:46;;;;;;;4.70;2.20;;;21.70;44.50;;;;;;5053546;28;20409;-61